Central Sonoma County Latest

37 Stations

15 Minute Data | America/Los_Angeles
as of 5/8/26 5:52 PM PDT
Station Date Time Temp (°F) RH (%) Dew Pt (°F) Wind Spd (mph) Wind Dir (°) Wind Gust (mph) Latest Rain (In) Daily Rain (In) Daily Max Temp (°F) Daily Min Temp (°F)
Windsor-NW (Ranch 8) 5/8/26 1745 73.0   2.5 60   8 58.1   1.2 2.9   1.1 SSE | 158 8.5   1.6 0.00 0.00 77.8   3.5 51.2   0.8
Windsor-East (Ranch 16) 5/8/26 1745 71.3   3.7 55   7 54.5   0.1 6.2   0.7 S | 171 10.7   0.9 0.00 0.00 75.0   3.0 52.0   0.4
Mark West-North (Ranch 14) 5/8/26 1745 69.5   3.1 57   6 53.6   0.2 4.3   0.9 SSE | 164 9.3   0.8 0.00 0.00 74.5   3.6 51.8   0.0
Windsor-SE (Silk Rd) 5/8/26 1745 70.3   1.7 58   6 54.7   1.1 4.4   1.4 ESE | 118 9.2   2.4 0.00 0.00 75.8   3.3 51.6   0.6
Fulton-NW (Ranch 5) 5/8/26 1745 70.3   3.0 59   5 55.2   0.4 5.3   0.8 SE | 146 9.2   2.2 0.00 0.00 74.3   2.7 51.6   0.2
Bisordi (Fulton) 5/8/26 1745 69.8   3.2 66   6 58.0   0.8 3.8   0.3 SSE | 157 10.5   0.6 0.00 0.00 74.1   3.3 51.9   0.4
Windsor-South (Laughlin Rd) 5/8/26 1745 69.3   1.9 59   6 54.4   1.0 - - - 0.00 0.00 75.5   3.0 51.4   0.3
Fulton-SE (Barnes Rd) 5/8/26 1745 69.2   3.7 58   8 54.0   0.0 0.0   7.0 N | 0 0.0   12.9 0.00 0.00 73.8   2.8 52.2   0.1
Fulton-SW (Ranch 21) 5/8/26 1730 67.5   1.4 64   3 54.9   0.2 8.1   0.1 S | 173 12.5   1.2 0.00 0.00 72.9   3.2 51.1   0.1
NW Santa Rosa (Piner Road) 5/8/26 1745 66.1   1.8 73   6 57.3   0.5 4.1   1.7 SSE | 157 9.3   1.7 0.00 0.00 72.7   3.7 51.2   0.2
River Rd South (Denner Ranch) 5/8/26 1745 68.4   0.5 61   1 54.2   1.1 8.4   0.4 SE | 132 13.2   0.0 - - 74.1   2.0 50.9   0.2
West Santa Rosa (LOV Vineyard) 5/8/26 1745 68.6   0.7 61   4 54.6   1.2 1.9   0.0 SE | 140 5.7   1.8 0.00 0.00 73.4   2.2 51.1   0.4
Guerneville Rd (Prokopakis) 5/8/26 1745 69.8   0.5 59   1 54.9   0.8 - - - 0.00 0.00 77.5   4.4 51.5   0.3
SunnyView Vineyard (SCWC) 5/8/26 1745 66.2   0.9 64   4 53.6   0.9 3.6   0.2 SSE | 148 9.1   0.2 0.00 0.00 72.6   3.0 50.9   0.2
Guerneville Rd West (Balletto) 5/8/26 1745 68.1   0.0 67   2 56.9   0.8 5.9   0.1 SE | 140 10.9   0.5 0.00 0.00 73.9   2.7 51.3   0.3
Sanchietti Ranch 5/8/26 1745 66.9   1.2 74   3 58.2   0.1 6.3   0.3 SSE | 157 11.2   0.1 0.00 0.00 73.3   3.6 51.9   0.3
Occidental Rd (Sebastopol) 5/8/26 1745 66.8   1.6 100   0 66.8   1.5 3.6   1.4 SE | 136 8.3   1.1 0.00 0.00 73.4   2.2 50.7   0.4
Harper's Rest (Windsor-West) 5/8/26 1745 73.5   1.8 52   3 54.8   0.3 3.4   1.3 E | 92 7.1   2.2 0.00 0.00 76.9   2.4 49.9   0.8
Lower Westside Rd (Ranch 12) 5/8/26 1745 72.9   0.9 54   1 55.2   0.4 3.9   0.3 SE | 130 8.3   1.4 0.00 0.00 77.4   1.5 51.2   0.4
Guerneville (Laughlin Rd) 5/8/26 1745 76.8   10.0 48   14 55.5   2.3 3.7   0.8 SSE | 166 6.6   2.2 0.00 0.00 79.2   7.0 50.8   0.6
Korbel (Winery) 5/8/26 1745 77.2   9.0 51   10 57.9   3.6 3.3   0.9 SE | 125 8.2   2.6 0.00 0.00 80.7   6.6 51.7   0.4
Forestville (Shone Farms) 5/8/26 1745 70.9   0.9 59   3 56.0   0.5 4.6   1.4 ESE | 106 9.0   1.6 0.00 0.00 76.6   1.2 49.9   0.0
Forestville-NE (Ranch 30) 5/8/26 1745 71.2   1.0 62   3 57.8   0.6 6.0   2.0 ESE | 120 10.2   2.9 0.00 0.00 76.0   0.1 50.8   0.1
Foggy Bend (Ranch 41) 5/8/26 1745 73.2   2.4 62   1 59.4   1.9 1.8   2.8 E | 96 4.7   5.1 0.00 0.00 77.4   1.8 52.0   0.2
Last Stop 5/8/26 1745 73.6   1.9 58   4 58.1   0.1 4.6   1.8 ESE | 118 7.5   2.0 0.00 0.00 77.0   1.0 51.3   0.1
Green Valley Vineyard 5/8/26 1745 72.0   2.3 58   0 56.7   2.1 2.5   0.6 ESE | 110 5.7   1.3 0.00 0.01 74.6   1.2 50.2   0.1
Park Royal 5/8/26 1745 67.3   2.4 61   6 53.5   0.2 - - - 0.00 0.00 72.6   2.9 50.6   0.5
Merino 5/8/26 1745 67.0   1.9 69   5 56.7   0.2 6.1   0.7 S | 176 11.1   0.2 0.00 0.00 72.2   2.8 51.0   0.5
Green Valley (Sanchietti) 5/8/26 1745 73.6   0.1 - - - - - - - 76.3   0.2 51.7   1.3
Keefer Ranch (Green Valley) 5/8/26 1745 72.2   3.0 63   2 58.8   1.8 - - - 0.00 0.00 75.3   1.1 51.4   0.1
Graton-West (Dutton Ranch) 5/8/26 1745 73.0   3.0 66   7 60.8   0.0 2.9   0.3 SE | 140 5.8   0.0 0.00 0.01 75.5   0.2 51.4   0.1
Graton-South (Mill Station Rd) 5/8/26 1745 71.1   3.6 59   5 55.9   1.0 0.6   1.1 SSW | 192 3.2   1.1 0.00 0.00 72.8   2.5 50.3   0.4
Occidental (Horseshoe Bend) 5/8/26 1745 66.8   2.8 65   4 54.5   0.9 - - - 0.00 0.00 72.3   1.2 48.6   0.7
Sexton Valley (Jacqueline's Blk) 5/8/26 1745 68.2   1.4 68   2 57.4   0.7 2.4   0.3 S | 190 6.7   2.5 0.00 0.01 71.6   2.1 50.8   0.2
Sebastopol Hills (Burnside Rd) 5/8/26 1745 66.7   3.9 71   7 56.9   1.3 3.5   1.6 SW | 216 6.6   2.0 0.00 0.01 69.3   3.9 49.3   0.2
Pleasant Hill 5/8/26 1745 66.7   2.5 63   6 53.9   0.0 3.5   0.8 S | 176 5.8   2.2 0.00 0.01 70.9   2.5 49.7   0.6
Seaview/Fort Ross (Hirsch) 5/8/26 1745 71.5   9.9 43   31 47.8   5.5 3.5   0.2 NNW | 329 6.7   0.5 0.00 0.00 74.4   10.9 43.9   3.3
Max     77.2 100 66.8 8.4 - 13.2 0.00 0.01 80.7 52.2
Avg     70.2 62 56.2 4.0 - 8.1 0.00 - - -
Min     66.1 43 47.8 0.0 - 0.0 0.00 0.00 69.3 43.9